sensor_id;sensor_type;location;lat;lon;timestamp;pressure;altitude;pressure_sealevel;temperature;humidity
13695;BME280;6919;52.344;14.518;2022-12-18T00:00:09;102360.44;;;-2.71;100.00
13695;BME280;6919;52.344;14.518;2022-12-18T00:02:39;102362.81;;;-2.57;100.00
13695;BME280;6919;52.344;14.518;2022-12-18T00:05:08;102356.44;;;-2.46;100.00
13695;BME280;6919;52.344;14.518;2022-12-18T00:07:36;102353.03;;;-2.49;100.00
13695;BME280;6919;52.344;14.518;2022-12-18T00:10:06;102361.84;;;-2.52;100.00
13695;BME280;6919;52.344;14.518;2022-12-18T00:12:35;102360.63;;;-2.36;100.00
13695;BME280;6919;52.344;14.518;2022-12-18T00:15:04;102368.56;;;-2.39;100.00
13695;BME280;6919;52.344;14.518;2022-12-18T00:17:33;102364.91;;;-2.32;100.00
13695;BME280;6919;52.344;14.518;2022-12-18T00:20:03;102370.31;;;-2.38;100.00
13695;BME280;6919;52.344;14.518;2022-12-18T00:22:31;102374.66;;;-2.37;100.00
13695;BME280;6919;52.344;14.518;2022-12-18T00:24:59;102378.91;;;-2.30;100.00
13695;BME280;6919;52.344;14.518;2022-12-18T00:27:28;102381.47;;;-2.27;100.00
13695;BME280;6919;52.344;14.518;2022-12-18T00:29:56;102377.41;;;-2.43;100.00
13695;BME280;6919;52.344;14.518;2022-12-18T00:32:24;102382.31;;;-2.26;100.00
13695;BME280;6919;52.344;14.518;2022-12-18T00:34:52;102375.19;;;-2.20;100.00
13695;BME280;6919;52.344;14.518;2022-12-18T00:37:22;102379.63;;;-2.23;100.00
13695;BME280;6919;52.344;14.518;2022-12-18T00:39:50;102397.06;;;-2.19;100.00
13695;BME280;6919;52.344;14.518;2022-12-18T00:42:18;102397.16;;;-2.22;100.00
13695;BME280;6919;52.344;14.518;2022-12-18T00:45:05;102399.78;;;-2.22;100.00
13695;BME280;6919;52.344;14.518;2022-12-18T00:47:39;102398.56;;;-2.06;100.00
13695;BME280;6919;52.344;14.518;2022-12-18T00:50:09;102406.75;;;-2.21;100.00
13695;BME280;6919;52.344;14.518;2022-12-18T00:52:42;102399.63;;;-2.16;100.00
13695;BME280;6919;52.344;14.518;2022-12-18T00:55:10;102398.66;;;-2.11;100.00
13695;BME280;6919;52.344;14.518;2022-12-18T00:57:39;102395.97;;;-2.08;100.00
13695;BME280;6919;52.344;14.518;2022-12-18T01:00:12;102398.66;;;-2.11;100.00
13695;BME280;6919;52.344;14.518;2022-12-18T01:02:42;102396.00;;;-2.09;100.00
13695;BME280;6919;52.344;14.518;2022-12-18T01:05:12;102397.50;;;-1.98;100.00
13695;BME280;6919;52.344;14.518;2022-12-18T01:07:42;102394.16;;;-2.04;100.00
13695;BME280;6919;52.344;14.518;2022-12-18T01:10:12;102396.88;;;-2.09;100.00
13695;BME280;6919;52.344;14.518;2022-12-18T01:12:41;102392.56;;;-2.13;100.00
13695;BME280;6919;52.344;14.518;2022-12-18T01:15:12;102400.47;;;-2.13;100.00
13695;BME280;6919;52.344;14.518;2022-12-18T01:17:41;102394.31;;;-2.12;100.00
13695;BME280;6919;52.344;14.518;2022-12-18T01:20:12;102393.66;;;-2.23;100.00
13695;BME280;6919;52.344;14.518;2022-12-18T01:22:42;102398.16;;;-2.28;100.00
13695;BME280;6919;52.344;14.518;2022-12-18T01:25:10;102396.28;;;-2.23;100.00
13695;BME280;6919;52.344;14.518;2022-12-18T01:27:38;102389.66;;;-2.42;100.00
13695;BME280;6919;52.344;14.518;2022-12-18T01:30:08;102398.88;;;-2.67;100.00
13695;BME280;6919;52.344;14.518;2022-12-18T01:32:37;102404.72;;;-2.53;100.00
13695;BME280;6919;52.344;14.518;2022-12-18T01:35:07;102394.44;;;-2.63;100.00
13695;BME280;6919;52.344;14.518;2022-12-18T01:37:35;102403.81;;;-2.50;100.00
13695;BME280;6919;52.344;14.518;2022-12-18T01:40:07;102404.50;;;-2.41;100.00
13695;BME280;6919;52.344;14.518;2022-12-18T01:42:35;102406.56;;;-2.56;100.00
13695;BME280;6919;52.344;14.518;2022-12-18T01:45:21;102405.78;;;-2.61;100.00
13695;BME280;6919;52.344;14.518;2022-12-18T01:47:52;102408.69;;;-2.79;100.00
13695;BME280;6919;52.344;14.518;2022-12-18T01:50:27;102418.97;;;-2.64;100.00
13695;BME280;6919;52.344;14.518;2022-12-18T01:53:03;102416.03;;;-2.48;100.00
13695;BME280;6919;52.344;14.518;2022-12-18T01:55:39;102403.66;;;-2.43;100.00
13695;BME280;6919;52.344;14.518;2022-12-18T01:58:09;102403.84;;;-2.52;100.00
13695;BME280;6919;52.344;14.518;2022-12-18T02:00:37;102402.91;;;-2.49;100.00
13695;BME280;6919;52.344;14.518;2022-12-18T02:03:05;102403.94;;;-2.58;100.00
13695;BME280;6919;52.344;14.518;2022-12-18T02:05:44;102410.94;;;-2.57;100.00
13695;BME280;6919;52.344;14.518;2022-12-18T02:08:21;102395.34;;;-2.66;100.00
13695;BME280;6919;52.344;14.518;2022-12-18T02:11:01;102404.94;;;-2.63;100.00
13695;BME280;6919;52.344;14.518;2022-12-18T02:13:41;102400.09;;;-2.39;100.00
13695;BME280;6919;52.344;14.518;2022-12-18T02:16:24;102409.72;;;-2.38;100.00
13695;BME280;6919;52.344;14.518;2022-12-18T02:18:58;102402.63;;;-2.34;100.00
13695;BME280;6919;52.344;14.518;2022-12-18T02:21:36;102401.69;;;-2.32;100.00
13695;BME280;6919;52.344;14.518;2022-12-18T02:24:25;102410.50;;;-2.34;100.00
13695;BME280;6919;52.344;14.518;2022-12-18T02:27:01;102409.63;;;-2.33;100.00
13695;BME280;6919;52.344;14.518;2022-12-18T02:29:37;102410.47;;;-2.33;100.00
13695;BME280;6919;52.344;14.518;2022-12-18T02:32:13;102409.56;;;-2.32;100.00
13695;BME280;6919;52.344;14.518;2022-12-18T02:34:44;102413.91;;;-2.28;100.00
13695;BME280;6919;52.344;14.518;2022-12-18T02:37:18;102412.91;;;-2.22;100.00
13695;BME280;6919;52.344;14.518;2022-12-18T02:39:49;102411.97;;;-2.18;100.00
13695;BME280;6919;52.344;14.518;2022-12-18T02:42:19;102419.81;;;-2.17;100.00
13695;BME280;6919;52.344;14.518;2022-12-18T02:44:49;102416.13;;;-2.08;100.00
13695;BME280;6919;52.344;14.518;2022-12-18T02:47:21;102422.50;;;-2.20;100.00
13695;BME280;6919;52.344;14.518;2022-12-18T02:50:02;102426.22;;;-2.31;100.00
13695;BME280;6919;52.344;14.518;2022-12-18T02:52:41;102425.94;;;-2.18;100.00
13695;BME280;6919;52.344;14.518;2022-12-18T02:55:28;102426.22;;;-2.31;100.00
13695;BME280;6919;52.344;14.518;2022-12-18T02:58:07;102428.41;;;-2.54;100.00
13695;BME280;6919;52.344;14.518;2022-12-18T03:00:50;102423.97;;;-2.52;100.00
13695;BME280;6919;52.344;14.518;2022-12-18T03:03:28;102425.56;;;-2.44;100.00
13695;BME280;6919;52.344;14.518;2022-12-18T03:06:04;102440.28;;;-2.34;100.00
13695;BME280;6919;52.344;14.518;2022-12-18T03:08:39;102432.75;;;-2.52;100.00
13695;BME280;6919;52.344;14.518;2022-12-18T03:11:12;102427.47;;;-2.52;100.00
13695;BME280;6919;52.344;14.518;2022-12-18T03:13:48;102433.47;;;-2.44;100.00
13695;BME280;6919;52.344;14.518;2022-12-18T03:16:22;102440.44;;;-2.43;100.00
13695;BME280;6919;52.344;14.518;2022-12-18T03:18:56;102449.97;;;-2.37;100.00
13695;BME280;6919;52.344;14.518;2022-12-18T03:21:32;102445.59;;;-2.38;100.00
13695;BME280;6919;52.344;14.518;2022-12-18T03:24:08;102446.63;;;-2.45;100.00
13695;BME280;6919;52.344;14.518;2022-12-18T03:26:42;102453.88;;;-2.59;100.00
13695;BME280;6919;52.344;14.518;2022-12-18T03:29:20;102457.41;;;-2.60;100.00
13695;BME280;6919;52.344;14.518;2022-12-18T03:31:55;102461.78;;;-2.62;100.00
13695;BME280;6919;52.344;14.518;2022-12-18T03:34:30;102463.34;;;-2.51;100.00
13695;BME280;6919;52.344;14.518;2022-12-18T03:37:03;102465.13;;;-2.53;100.00
13695;BME280;6919;52.344;14.518;2022-12-18T03:39:33;102469.16;;;-2.84;100.00
13695;BME280;6919;52.344;14.518;2022-12-18T03:42:06;102471.84;;;-2.87;100.00
13695;BME280;6919;52.344;14.518;2022-12-18T03:44:43;102466.56;;;-2.85;100.00
13695;BME280;6919;52.344;14.518;2022-12-18T03:47:20;102480.69;;;-2.94;100.00
13695;BME280;6919;52.344;14.518;2022-12-18T03:49:59;102480.50;;;-2.82;100.00
13695;BME280;6919;52.344;14.518;2022-12-18T03:52:46;102477.09;;;-2.87;100.00
13695;BME280;6919;52.344;14.518;2022-12-18T03:55:19;102483.13;;;-2.82;100.00
13695;BME280;6919;52.344;14.518;2022-12-18T03:57:52;102484.81;;;-2.78;100.00
13695;BME280;6919;52.344;14.518;2022-12-18T04:00:22;102483.03;;;-2.76;100.00
13695;BME280;6919;52.344;14.518;2022-12-18T04:02:54;102490.78;;;-2.68;100.00
13695;BME280;6919;52.344;14.518;2022-12-18T04:05:25;102489.88;;;-2.66;100.00
13695;BME280;6919;52.344;14.518;2022-12-18T04:07:56;102490.66;;;-2.62;100.00
13695;BME280;6919;52.344;14.518;2022-12-18T04:10:24;102490.72;;;-2.65;100.00
13695;BME280;6919;52.344;14.518;2022-12-18T04:12:56;102486.31;;;-2.62;100.00
13695;BME280;6919;52.344;14.518;2022-12-18T04:15:25;102493.00;;;-2.46;100.00
13695;BME280;6919;52.344;14.518;2022-12-18T04:17:53;102495.06;;;-2.61;100.00
13695;BME280;6919;52.344;14.518;2022-12-18T04:20:22;102486.31;;;-2.63;100.00
13695;BME280;6919;52.344;14.518;2022-12-18T04:22:50;102487.22;;;-2.64;100.00
13695;BME280;6919;52.344;14.518;2022-12-18T04:25:18;102487.09;;;-2.58;100.00
13695;BME280;6919;52.344;14.518;2022-12-18T04:27:46;102486.00;;;-2.98;100.00
13695;BME280;6919;52.344;14.518;2022-12-18T04:30:15;102491.22;;;-2.95;100.00
13695;BME280;6919;52.344;14.518;2022-12-18T04:32:44;102489.56;;;-3.01;100.00
13695;BME280;6919;52.344;14.518;2022-12-18T04:35:18;102491.47;;;-3.12;100.00
13695;BME280;6919;52.344;14.518;2022-12-18T04:37:46;102497.44;;;-3.01;100.00
13695;BME280;6919;52.344;14.518;2022-12-18T04:40:14;102497.47;;;-3.04;100.00
13695;BME280;6919;52.344;14.518;2022-12-18T04:42:43;102492.22;;;-3.04;100.00
13695;BME280;6919;52.344;14.518;2022-12-18T04:45:11;102495.56;;;-2.94;100.00
13695;BME280;6919;52.344;14.518;2022-12-18T04:47:39;102494.66;;;-2.92;100.00
13695;BME280;6919;52.344;14.518;2022-12-18T04:50:09;102485.06;;;-2.94;100.00
13695;BME280;6919;52.344;14.518;2022-12-18T04:52:37;102483.31;;;-2.94;100.00
13695;BME280;6919;52.344;14.518;2022-12-18T04:55:06;102483.13;;;-2.82;100.00
13695;BME280;6919;52.344;14.518;2022-12-18T04:57:35;102482.38;;;-2.88;100.00
13695;BME280;6919;52.344;14.518;2022-12-18T05:00:04;102485.72;;;-2.80;100.00
13695;BME280;6919;52.344;14.518;2022-12-18T05:02:33;102482.31;;;-2.84;100.00
13695;BME280;6919;52.344;14.518;2022-12-18T05:05:02;102485.06;;;-2.93;100.00
13695;BME280;6919;52.344;14.518;2022-12-18T05:07:31;102489.34;;;-2.89;100.00
13695;BME280;6919;52.344;14.518;2022-12-18T05:10:00;102495.59;;;-2.96;100.00
13695;BME280;6919;52.344;14.518;2022-12-18T05:12:28;102494.53;;;-2.83;100.00
13695;BME280;6919;52.344;14.518;2022-12-18T05:14:56;102496.28;;;-2.83;100.00
13695;BME280;6919;52.344;14.518;2022-12-18T05:17:24;102513.88;;;-2.90;100.00
13695;BME280;6919;52.344;14.518;2022-12-18T05:19:52;102524.13;;;-2.75;100.00
13695;BME280;6919;52.344;14.518;2022-12-18T05:22:21;102526.72;;;-2.72;100.00
13695;BME280;6919;52.344;14.518;2022-12-18T05:24:50;102533.63;;;-2.66;100.00
13695;BME280;6919;52.344;14.518;2022-12-18T05:27:18;102527.53;;;-2.67;100.00
13695;BME280;6919;52.344;14.518;2022-12-18T05:29:47;102531.19;;;-2.78;100.00
13695;BME280;6919;52.344;14.518;2022-12-18T05:32:15;102534.84;;;-2.87;100.00
13695;BME280;6919;52.344;14.518;2022-12-18T05:34:43;102523.47;;;-2.87;100.00
13695;BME280;6919;52.344;14.518;2022-12-18T05:37:12;102524.19;;;-2.78;100.00
13695;BME280;6919;52.344;14.518;2022-12-18T05:39:40;102531.00;;;-2.66;100.00
13695;BME280;6919;52.344;14.518;2022-12-18T05:42:10;102534.63;;;-2.75;100.00
13695;BME280;6919;52.344;14.518;2022-12-18T05:44:38;102534.84;;;-2.87;100.00
13695;BME280;6919;52.344;14.518;2022-12-18T05:47:06;102538.34;;;-2.88;100.00
13695;BME280;6919;52.344;14.518;2022-12-18T05:49:34;102531.03;;;-2.68;100.00
13695;BME280;6919;52.344;14.518;2022-12-18T05:52:03;102533.81;;;-2.77;100.00
13695;BME280;6919;52.344;14.518;2022-12-18T05:54:31;102534.84;;;-2.87;100.00
13695;BME280;6919;52.344;14.518;2022-12-18T05:57:00;102531.28;;;-2.84;100.00
13695;BME280;6919;52.344;14.518;2022-12-18T05:59:29;102535.75;;;-2.89;100.00
13695;BME280;6919;52.344;14.518;2022-12-18T06:01:57;102539.25;;;-2.92;100.00
13695;BME280;6919;52.344;14.518;2022-12-18T06:04:27;102543.59;;;-2.88;100.00
13695;BME280;6919;52.344;14.518;2022-12-18T06:06:55;102549.88;;;-2.98;100.00
13695;BME280;6919;52.344;14.518;2022-12-18T06:09:23;102549.25;;;-3.18;100.00
13695;BME280;6919;52.344;14.518;2022-12-18T06:11:52;102552.78;;;-3.19;100.00
13695;BME280;6919;52.344;14.518;2022-12-18T06:14:20;102559.63;;;-3.08;100.00
13695;BME280;6919;52.344;14.518;2022-12-18T06:16:51;102561.19;;;-2.96;100.00
13695;BME280;6919;52.344;14.518;2022-12-18T06:19:20;102568.94;;;-2.87;100.00
13695;BME280;6919;52.344;14.518;2022-12-18T06:21:49;102580.38;;;-2.91;100.00
13695;BME280;6919;52.344;14.518;2022-12-18T06:24:18;102585.53;;;-2.85;100.00
13695;BME280;6919;52.344;14.518;2022-12-18T06:26:46;102584.72;;;-2.88;100.00
13695;BME280;6919;52.344;14.518;2022-12-18T06:29:14;102587.19;;;-2.79;100.00
13695;BME280;6919;52.344;14.518;2022-12-18T06:31:42;102588.06;;;-2.79;100.00
13695;BME280;6919;52.344;14.518;2022-12-18T06:34:12;102596.56;;;-2.62;100.00
13695;BME280;6919;52.344;14.518;2022-12-18T06:36:40;102600.41;;;-2.84;100.00
13695;BME280;6919;52.344;14.518;2022-12-18T06:39:08;102600.31;;;-2.78;100.00
13695;BME280;6919;52.344;14.518;2022-12-18T06:41:36;102604.72;;;-2.80;100.00
13695;BME280;6919;52.344;14.518;2022-12-18T06:44:05;102613.50;;;-2.82;100.00
13695;BME280;6919;52.344;14.518;2022-12-18T06:46:34;102608.16;;;-2.76;100.00
13695;BME280;6919;52.344;14.518;2022-12-18T06:49:02;102612.66;;;-2.86;100.00
13695;BME280;6919;52.344;14.518;2022-12-18T06:51:31;102610.09;;;-2.89;100.00
13695;BME280;6919;52.344;14.518;2022-12-18T06:54:00;102616.03;;;-2.76;100.00
13695;BME280;6919;52.344;14.518;2022-12-18T06:56:28;102619.53;;;-2.76;100.00
13695;BME280;6919;52.344;14.518;2022-12-18T06:58:57;102628.31;;;-2.77;100.00
13695;BME280;6919;52.344;14.518;2022-12-18T07:01:25;102636.06;;;-2.71;100.00
13695;BME280;6919;52.344;14.518;2022-12-18T07:03:54;102639.53;;;-2.67;100.00
13695;BME280;6919;52.344;14.518;2022-12-18T07:06:25;102646.47;;;-2.63;100.00
13695;BME280;6919;52.344;14.518;2022-12-18T07:08:55;102636.06;;;-2.71;100.00
13695;BME280;6919;52.344;14.518;2022-12-18T07:11:24;102638.78;;;-2.74;100.00
13695;BME280;6919;52.344;14.518;2022-12-18T07:13:53;102651.66;;;-2.57;100.00
13695;BME280;6919;52.344;14.518;2022-12-18T07:16:22;102649.00;;;-2.56;100.00
13695;BME280;6919;52.344;14.518;2022-12-18T07:18:52;102659.63;;;-2.65;100.00
13695;BME280;6919;52.344;14.518;2022-12-18T07:21:21;102662.00;;;-2.48;100.00
13695;BME280;6919;52.344;14.518;2022-12-18T07:23:50;102655.00;;;-2.48;100.00
13695;BME280;6919;52.344;14.518;2022-12-18T07:26:21;102648.78;;;-2.41;100.00
13695;BME280;6919;52.344;14.518;2022-12-18T07:28:50;102639.06;;;-2.36;100.00
13695;BME280;6919;52.344;14.518;2022-12-18T07:31:21;102643.38;;;-2.32;100.00
13695;BME280;6919;52.344;14.518;2022-12-18T07:33:50;102643.56;;;-2.44;100.00
13695;BME280;6919;52.344;14.518;2022-12-18T07:36:22;102645.28;;;-2.43;100.00
13695;BME280;6919;52.344;14.518;2022-12-18T07:38:51;102642.66;;;-2.41;100.00
13695;BME280;6919;52.344;14.518;2022-12-18T07:41:21;102643.75;;;-2.56;100.00
13695;BME280;6919;52.344;14.518;2022-12-18T07:43:49;102645.41;;;-2.49;100.00
13695;BME280;6919;52.344;14.518;2022-12-18T07:46:18;102649.81;;;-2.52;100.00
13695;BME280;6919;52.344;14.518;2022-12-18T07:48:47;102650.59;;;-2.46;100.00
13695;BME280;6919;52.344;14.518;2022-12-18T07:51:17;102662.75;;;-2.39;100.00
13695;BME280;6919;52.344;14.518;2022-12-18T07:53:46;102666.94;;;-2.27;100.00
13695;BME280;6919;52.344;14.518;2022-12-18T07:56:21;102666.06;;;-2.26;100.00
13695;BME280;6919;52.344;14.518;2022-12-18T07:58:57;102657.44;;;-2.36;100.00
13695;BME280;6919;52.344;14.518;2022-12-18T08:01:25;102667.38;;;-2.54;100.00
13695;BME280;6919;52.344;14.518;2022-12-18T08:03:57;102657.72;;;-2.54;100.00
13695;BME280;6919;52.344;14.518;2022-12-18T08:06:25;102653.19;;;-2.44;100.00
13695;BME280;6919;52.344;14.518;2022-12-18T08:08:54;102649.59;;;-2.39;100.00
13695;BME280;6919;52.344;14.518;2022-12-18T08:11:27;102654.00;;;-2.39;100.00
13695;BME280;6919;52.344;14.518;2022-12-18T08:13:55;102654.72;;;-2.28;100.00
13695;BME280;6919;52.344;14.518;2022-12-18T08:16:24;102649.59;;;-2.37;100.00
13695;BME280;6919;52.344;14.518;2022-12-18T08:18:53;102645.19;;;-2.35;100.00
13695;BME280;6919;52.344;14.518;2022-12-18T08:21:24;102633.06;;;-2.44;100.00
13695;BME280;6919;52.344;14.518;2022-12-18T08:23:55;102642.53;;;-2.34;100.00
13695;BME280;6919;52.344;14.518;2022-12-18T08:26:27;102640.03;;;-2.43;100.00
13695;BME280;6919;52.344;14.518;2022-12-18T08:28:58;102639.94;;;-2.35;100.00
13695;BME280;6919;52.344;14.518;2022-12-18T08:31:29;102643.25;;;-2.23;100.00
13695;BME280;6919;52.344;14.518;2022-12-18T08:33:58;102637.28;;;-2.34;100.00
13695;BME280;6919;52.344;14.518;2022-12-18T08:36:26;102631.03;;;-2.25;100.00
13695;BME280;6919;52.344;14.518;2022-12-18T08:38:54;102627.66;;;-2.33;100.00
13695;BME280;6919;52.344;14.518;2022-12-18T08:41:24;102624.91;;;-2.26;100.00
13695;BME280;6919;52.344;14.518;2022-12-18T08:43:52;102636.16;;;-2.18;100.00
13695;BME280;6919;52.344;14.518;2022-12-18T08:46:41;102643.28;;;-2.24;100.00
13695;BME280;6919;52.344;14.518;2022-12-18T08:49:11;102643.59;;;-2.45;100.00
13695;BME280;6919;52.344;14.518;2022-12-18T08:51:40;102650.97;;;-2.70;100.00
13695;BME280;6919;52.344;14.518;2022-12-18T08:54:11;102659.63;;;-2.63;100.00
13695;BME280;6919;52.344;14.518;2022-12-18T08:56:41;102655.06;;;-2.52;100.00
13695;BME280;6919;52.344;14.518;2022-12-18T08:59:10;102665.53;;;-2.48;100.00
13695;BME280;6919;52.344;14.518;2022-12-18T09:01:46;102658.53;;;-2.49;100.00
13695;BME280;6919;52.344;14.518;2022-12-18T09:04:16;102657.66;;;-2.48;100.00
13695;BME280;6919;52.344;14.518;2022-12-18T09:06:44;102666.59;;;-2.62;100.00
13695;BME280;6919;52.344;14.518;2022-12-18T09:09:12;102661.97;;;-2.45;100.00
13695;BME280;6919;52.344;14.518;2022-12-18T09:11:42;102650.59;;;-2.46;100.00
13695;BME280;6919;52.344;14.518;2022-12-18T09:14:10;102654.00;;;-2.38;100.00
13695;BME280;6919;52.344;14.518;2022-12-18T09:16:39;102668.22;;;-2.52;100.00
13695;BME280;6919;52.344;14.518;2022-12-18T09:19:08;102664.91;;;-2.68;100.00
13695;BME280;6919;52.344;14.518;2022-12-18T09:21:39;102658.91;;;-2.74;100.00
13695;BME280;6919;52.344;14.518;2022-12-18T09:24:15;102649.31;;;-2.78;100.00
13695;BME280;6919;52.344;14.518;2022-12-18T09:26:45;102647.56;;;-2.79;100.00
13695;BME280;6919;52.344;14.518;2022-12-18T09:29:14;102669.47;;;-2.80;100.00
13695;BME280;6919;52.344;14.518;2022-12-18T09:31:45;102669.22;;;-2.64;100.00
13695;BME280;6919;52.344;14.518;2022-12-18T09:34:13;102658.84;;;-2.70;100.00
13695;BME280;6919;52.344;14.518;2022-12-18T09:36:41;102669.25;;;-2.65;100.00
13695;BME280;6919;52.344;14.518;2022-12-18T09:39:09;102679.03;;;-2.76;100.00
13695;BME280;6919;52.344;14.518;2022-12-18T09:41:50;102685.84;;;-2.62;100.00
13695;BME280;6919;52.344;14.518;2022-12-18T09:44:25;102684.16;;;-2.66;100.00
13695;BME280;6919;52.344;14.518;2022-12-18T09:47:14;102686.50;;;-2.45;100.00
13695;BME280;6919;52.344;14.518;2022-12-18T09:49:46;102679.53;;;-2.47;100.00
13695;BME280;6919;52.344;14.518;2022-12-18T09:52:21;102687.63;;;-2.64;100.00
13695;BME280;6919;52.344;14.518;2022-12-18T09:54:56;102685.63;;;-2.47;100.00
13695;BME280;6919;52.344;14.518;2022-12-18T09:57:31;102685.72;;;-2.53;100.00
13695;BME280;6919;52.344;14.518;2022-12-18T10:00:11;102682.38;;;-2.64;100.00
13695;BME280;6919;52.344;14.518;2022-12-18T10:02:43;102684.13;;;-2.63;100.00
13695;BME280;6919;52.344;14.518;2022-12-18T10:05:14;102690.50;;;-2.85;100.00
13695;BME280;6919;52.344;14.518;2022-12-18T10:07:55;102694.59;;;-2.60;100.00
13695;BME280;6919;52.344;14.518;2022-12-18T10:10:38;102690.19;;;-2.61;100.00
13695;BME280;6919;52.344;14.518;2022-12-18T10:13:23;102684.88;;;-2.53;100.00
13695;BME280;6919;52.344;14.518;2022-12-18T10:16:13;102680.22;;;-2.35;100.00
13695;BME280;6919;52.344;14.518;2022-12-18T10:19:18;102682.09;;;-2.46;100.00
13695;BME280;6919;52.344;14.518;2022-12-18T10:21:59;102684.81;;;-2.49;100.00
13695;BME280;6919;52.344;14.518;2022-12-18T10:24:39;102683.63;;;-2.30;100.00
13695;BME280;6919;52.344;14.518;2022-12-18T10:27:15;102678.78;;;-2.58;100.00
13695;BME280;6919;52.344;14.518;2022-12-18T10:29:46;102675.00;;;-2.38;100.00
13695;BME280;6919;52.344;14.518;2022-12-18T10:32:17;102681.19;;;-2.42;100.00
13695;BME280;6919;52.344;14.518;2022-12-18T10:34:48;102667.28;;;-2.50;100.00
13695;BME280;6919;52.344;14.518;2022-12-18T10:37:28;102663.47;;;-2.28;100.00
13695;BME280;6919;52.344;14.518;2022-12-18T10:40:13;102657.50;;;-2.39;100.00
13695;BME280;6919;52.344;14.518;2022-12-18T10:43:04;102658.44;;;-2.44;100.00
13695;BME280;6919;52.344;14.518;2022-12-18T10:45:34;102662.50;;;-2.22;100.00
13695;BME280;6919;52.344;14.518;2022-12-18T10:48:04;102662.50;;;-2.22;100.00
13695;BME280;6919;52.344;14.518;2022-12-18T10:50:34;102654.78;;;-2.33;100.00
13695;BME280;6919;52.344;14.518;2022-12-18T10:53:27;102649.56;;;-2.36;100.00
13695;BME280;6919;52.344;14.518;2022-12-18T10:56:01;102651.31;;;-2.35;100.00
13695;BME280;6919;52.344;14.518;2022-12-18T10:58:33;102658.38;;;-2.40;100.00
13695;BME280;6919;52.344;14.518;2022-12-18T11:01:08;102666.19;;;-2.34;100.00
13695;BME280;6919;52.344;14.518;2022-12-18T11:03:39;102659.97;;;-2.28;100.00
13695;BME280;6919;52.344;14.518;2022-12-18T11:06:11;102653.84;;;-2.29;100.00
13695;BME280;6919;52.344;14.518;2022-12-18T11:08:42;102645.19;;;-2.34;100.00
13695;BME280;6919;52.344;14.518;2022-12-18T11:11:21;102636.25;;;-2.24;100.00
13695;BME280;6919;52.344;14.518;2022-12-18T11:14:02;102636.91;;;-2.10;100.00
13695;BME280;6919;52.344;14.518;2022-12-18T11:16:37;102632.69;;;-2.20;100.00
13695;BME280;6919;52.344;14.518;2022-12-18T11:19:34;102631.00;;;-2.24;100.00
13695;BME280;6919;52.344;14.518;2022-12-18T11:22:20;102625.09;;;-2.38;100.00
13695;BME280;6919;52.344;14.518;2022-12-18T11:24:56;102611.84;;;-2.32;100.00
13695;BME280;6919;52.344;14.518;2022-12-18T11:27:51;102606.50;;;-2.26;100.00
13695;BME280;6919;52.344;14.518;2022-12-18T11:30:26;102603.56;;;-2.08;100.00
13695;BME280;6919;52.344;14.518;2022-12-18T11:33:03;102599.53;;;-2.28;100.00
13695;BME280;6919;52.344;14.518;2022-12-18T11:35:42;102602.06;;;-2.21;100.00
13695;BME280;6919;52.344;14.518;2022-12-18T11:38:21;102591.66;;;-2.28;100.00
13695;BME280;6919;52.344;14.518;2022-12-18T11:40:58;102592.78;;;-2.44;100.00
13695;BME280;6919;52.344;14.518;2022-12-18T11:43:31;102578.69;;;-2.39;100.00
13695;BME280;6919;52.344;14.518;2022-12-18T11:46:07;102583.50;;;-2.12;100.00
13695;BME280;6919;52.344;14.518;2022-12-18T11:48:49;102579.91;;;-2.08;100.00
13695;BME280;6919;52.344;14.518;2022-12-18T11:51:38;102591.47;;;-2.18;100.00
13695;BME280;6919;52.344;14.518;2022-12-18T11:54:13;102588.19;;;-2.32;100.00
13695;BME280;6919;52.344;14.518;2022-12-18T11:56:49;102584.56;;;-2.23;100.00
13695;BME280;6919;52.344;14.518;2022-12-18T11:59:33;102589.81;;;-2.23;100.00
13695;BME280;6919;52.344;14.518;2022-12-18T12:02:26;102592.41;;;-2.22;100.00
13695;BME280;6919;52.344;14.518;2022-12-18T12:05:19;102596.00;;;-2.26;100.00
13695;BME280;6919;52.344;14.518;2022-12-18T12:08:00;102593.66;;;-2.44;100.00
13695;BME280;6919;52.344;14.518;2022-12-18T12:10:46;102605.44;;;-2.70;100.00
13695;BME280;6919;52.344;14.518;2022-12-18T12:13:36;102599.81;;;-2.45;100.00
13695;BME280;6919;52.344;14.518;2022-12-18T12:16:17;102592.69;;;-2.38;100.00
13695;BME280;6919;52.344;14.518;2022-12-18T12:19:15;102598.78;;;-2.35;100.00
13695;BME280;6919;52.344;14.518;2022-12-18T12:21:59;102594.56;;;-2.45;100.00
13695;BME280;6919;52.344;14.518;2022-12-18T12:24:50;102603.19;;;-2.37;100.00
13695;BME280;6919;52.344;14.518;2022-12-18T12:27:30;102597.06;;;-2.37;100.00
13695;BME280;6919;52.344;14.518;2022-12-18T12:30:08;102602.25;;;-2.33;100.00
13695;BME280;6919;52.344;14.518;2022-12-18T12:32:53;102612.00;;;-2.41;100.00
13695;BME280;6919;52.344;14.518;2022-12-18T12:35:42;102613.94;;;-2.52;100.00
13695;BME280;6919;52.344;14.518;2022-12-18T12:38:19;102614.81;;;-2.53;100.00
13695;BME280;6919;52.344;14.518;2022-12-18T12:40:56;102614.66;;;-2.42;100.00
13695;BME280;6919;52.344;14.518;2022-12-18T12:43:37;102617.22;;;-2.38;100.00
13695;BME280;6919;52.344;14.518;2022-12-18T12:46:19;102619.50;;;-2.15;100.00
13695;BME280;6919;52.344;14.518;2022-12-18T12:48:52;102631.69;;;-2.13;100.00
13695;BME280;6919;52.344;14.518;2022-12-18T12:51:24;102642.00;;;-2.01;100.00
13695;BME280;6919;52.344;14.518;2022-12-18T12:53:57;102639.22;;;-1.90;100.00
13695;BME280;6919;52.344;14.518;2022-12-18T12:56:42;102636.38;;;-1.80;100.00
13695;BME280;6919;52.344;14.518;2022-12-18T12:59:22;102635.22;;;-1.64;100.00
13695;BME280;6919;52.344;14.518;2022-12-18T13:01:59;102639.72;;;-1.72;100.00
13695;BME280;6919;52.344;14.518;2022-12-18T13:04:38;102631.38;;;-1.95;100.00
13695;BME280;6919;52.344;14.518;2022-12-18T13:07:15;102649.31;;;-2.19;100.00
13695;BME280;6919;52.344;14.518;2022-12-18T13:10:25;102658.09;;;-2.20;100.00